.
WxDataArchive / Data Records for 2012-09-07
2012-09-06 September 2012 2012-09-08

Data Records for Friday, 07 September 2012

Time	Temp	Chill	HIndex	Humid	Dewpt	 Wind 	HiWind	WindDir	Rain 	Barom 
-----	----	-----	------	-----	-----	------	------	-------	-----	----- 
00:00	66.6	66.6	66.6	72	57.3	0	0	---	0.00	29.896 
00:05	66.4	66.4	66.4	73	57.5	0	0	---	0.00	29.896 
00:10	66.3	66.3	66.3	75	58.1	0	0	---	0.00	29.896 
00:15	66.1	66.1	66.1	75	57.9	0	0	---	0.00	29.896 
00:20	66.0	66.0	66.0	75	57.8	0	0	---	0.00	29.896 
00:25	66.1	66.1	66.1	75	57.9	0	0	---	0.00	29.896 
00:30	66.1	66.1	66.1	75	57.9	0	0	---	0.00	29.894 
00:35	66.3	66.3	66.3	74	57.8	0	0	---	0.00	29.894 
00:40	66.3	66.3	66.3	74	57.8	0	0	---	0.00	29.894 
00:45	66.3	66.3	66.3	75	58.1	0	0	---	0.00	29.885 
00:50	66.1	66.1	66.1	75	57.9	0	0	---	0.00	29.885 
00:55	66.1	66.1	66.1	75	57.9	0	0	---	0.00	29.885 
01:00	66.0	66.0	66.0	75	57.8	0	0	---	0.00	29.879 
01:05	65.8	65.8	65.8	75	57.6	0	0	---	0.00	29.879 
01:10	65.6	65.6	65.6	75	57.5	0	0	---	0.00	29.879 
01:15	65.6	65.6	65.6	76	57.8	0	0	---	0.00	29.885 
01:20	65.3	65.3	65.3	76	57.5	0	0	---	0.00	29.885 
01:25	65.2	65.2	65.2	77	57.8	0	0	---	0.00	29.885 
01:30	65.0	65.0	65.0	77	57.6	0	0	---	0.00	29.888 
01:35	65.0	65.0	65.0	78	58.0	0	0	---	0.00	29.888 
01:40	64.8	64.8	64.8	78	57.8	0	0	---	0.00	29.888 
01:45	64.7	64.7	64.7	79	58.0	0	0	---	0.00	29.892 
01:50	64.7	64.7	64.7	80	58.4	0	0	---	0.00	29.892 
01:55	64.7	64.7	64.7	80	58.4	0	0	---	0.00	29.892 
02:00	64.5	64.5	64.5	80	58.2	0	0	---	0.00	29.897 
02:05	64.3	64.3	64.3	81	58.3	0	0	---	0.00	29.897 
02:10	64.2	64.2	64.2	81	58.2	0	0	---	0.00	29.897 
02:15	63.9	63.9	63.9	82	58.3	0	0	---	0.00	29.895 
02:20	63.7	63.7	63.7	82	58.1	0	0	---	0.00	29.895 
02:25	63.5	63.5	63.5	82	57.9	0	0	---	0.00	29.895 
02:30	63.4	63.4	63.4	82	57.8	0	0	---	0.00	29.895 
02:35	63.2	63.2	63.2	83	57.9	0	0	---	0.00	29.895 
02:40	63.1	63.1	63.1	83	57.8	0	0	---	0.00	29.895 
02:45	63.1	63.1	63.1	84	58.2	0	0	---	0.00	29.897 
02:50	62.9	62.9	62.9	84	58.0	0	0	---	0.00	29.897 
02:55	62.7	62.7	62.7	84	57.8	0	0	---	0.00	29.897 
03:00	62.6	62.6	62.6	85	58.0	0	0	---	0.00	29.889 
03:05	62.3	62.3	62.3	85	57.7	0	0	---	0.00	29.889 
03:10	62.1	62.1	62.1	86	57.9	0	0	---	0.00	29.889 
03:15	62.0	62.0	62.0	86	57.8	0	0	---	0.00	29.886 
03:20	62.0	62.0	62.0	86	57.8	0	0	---	0.00	29.886 
03:25	61.8	61.8	61.8	87	57.9	0	0	---	0.00	29.886 
03:30	61.6	61.6	61.6	87	57.7	0	0	---	0.00	29.887 
03:35	61.5	61.5	61.5	88	57.9	0	0	---	0.00	29.887 
03:40	61.5	61.5	61.5	88	57.9	0	0	---	0.00	29.887 
03:45	61.3	61.3	61.3	88	57.7	0	0	---	0.00	29.887 
03:50	61.2	61.2	61.2	88	57.6	0	0	---	0.00	29.887 
03:55	61.2	61.2	61.2	88	57.6	0	0	---	0.00	29.887 
04:00	61.0	61.0	61.0	88	57.4	0	0	---	0.00	29.886 
04:05	61.0	61.0	61.0	89	57.7	0	0	---	0.00	29.886 
04:10	61.0	61.0	61.0	89	57.7	0	0	---	0.00	29.886 
04:15	61.0	61.0	61.0	89	57.7	0	0	---	0.00	29.888 
04:20	60.9	60.9	60.9	89	57.6	0	0	---	0.00	29.888 
04:25	60.9	60.9	60.9	90	57.9	0	0	---	0.00	29.888 
04:30	60.7	60.7	60.7	90	57.7	0	0	---	0.00	29.887 
04:35	60.7	60.7	60.7	90	57.7	0	0	---	0.00	29.887 
04:40	60.7	60.7	60.7	90	57.7	0	0	---	0.00	29.887 
04:45	60.5	60.5	60.5	90	57.5	0	0	---	0.00	29.889 
04:50	60.5	60.5	60.5	91	57.9	0	0	---	0.00	29.889 
04:55	60.5	60.5	60.5	91	57.9	0	0	---	0.00	29.889 
05:00	60.4	60.4	60.4	91	57.8	0	0	---	0.00	29.878 
05:05	60.4	60.4	60.4	91	57.8	0	0	---	0.00	29.878 
05:10	60.4	60.4	60.4	91	57.8	0	0	---	0.00	29.878 
05:15	60.4	60.4	60.4	91	57.8	0	0	---	0.00	29.879 
05:20	60.4	60.4	60.4	91	57.8	0	0	---	0.00	29.879 
05:25	60.4	60.4	60.4	91	57.8	0	0	---	0.00	29.879 
05:30	60.4	60.4	60.4	91	57.8	0	0	---	0.00	29.874 
05:35	60.4	60.4	60.4	92	58.1	0	0	---	0.00	29.874 
05:40	60.4	60.4	60.4	92	58.1	0	0	---	0.00	29.874 
05:45	60.2	60.2	60.2	92	57.9	0	0	---	0.00	29.872 
05:50	60.2	60.2	60.2	92	57.9	0	0	---	0.00	29.872 
05:55	60.2	60.2	60.2	92	57.9	0	0	---	0.00	29.872 
06:00	60.2	60.2	60.2	92	57.9	0	0	---	0.00	29.873 
06:05	60.2	60.2	60.2	92	57.9	0	0	---	0.00	29.873 
06:10	60.2	60.2	60.2	92	57.9	0	0	---	0.00	29.873 
06:15	60.4	60.4	60.4	92	58.1	0	0	---	0.00	29.880 
06:20	60.4	60.4	60.4	92	58.1	0	0	---	0.00	29.880 
06:25	60.4	60.4	60.4	92	58.1	0	0	---	0.00	29.880 
06:30	60.2	60.2	60.2	92	57.9	0	0	---	0.00	29.875 
06:35	60.1	60.1	60.1	92	57.8	0	0	---	0.00	29.875 
06:40	60.1	60.1	60.1	92	57.8	0	0	---	0.00	29.875 
06:45	60.1	60.1	60.1	92	57.8	0	0	---	0.00	29.867 
06:50	59.9	59.9	59.9	92	57.6	0	0	---	0.00	29.867 
06:55	59.9	59.9	59.9	92	57.6	0	0	---	0.00	29.867 
07:00	59.9	59.9	59.9	93	57.9	0	0	---	0.00	29.864 
07:05	59.9	59.9	59.9	93	57.9	0	0	---	0.00	29.864 
07:10	59.8	59.8	59.8	93	57.8	0	0	---	0.00	29.864 
07:15	59.8	59.8	59.8	93	57.8	0	0	---	0.00	29.875 
07:20	59.8	59.8	59.8	93	57.8	0	0	---	0.00	29.875 
07:25	59.8	59.8	59.8	93	57.8	0	0	---	0.00	29.875 
07:30	59.8	59.8	59.8	93	57.8	0	0	---	0.00	29.880 
07:35	59.9	59.9	59.9	93	57.9	0	0	---	0.00	29.880 
07:40	60.1	60.1	60.1	93	58.1	0	0	---	0.00	29.880 
07:45	60.2	60.2	60.2	93	58.2	0	0	---	0.00	29.883 
07:50	60.4	60.4	60.4	93	58.4	0	0	---	0.00	29.883 
07:55	60.5	60.5	60.5	94	58.8	0	0	---	0.00	29.883 
08:00	60.7	60.7	60.7	94	59.0	0	0	---	0.00	29.881 
08:05	60.9	60.9	60.9	94	59.2	0	0	---	0.00	29.881 
08:10	61.2	61.2	61.2	94	59.5	0	0	---	0.00	29.881 
08:15	61.5	61.5	61.5	94	59.8	0	0	---	0.00	29.891 
08:20	61.8	61.8	61.8	94	60.1	0	0	---	0.00	29.891 
08:25	62.1	62.1	62.1	94	60.3	0	0	---	0.00	29.891 
08:30	62.4	62.4	62.4	94	60.6	0	0	---	0.00	29.886 
08:35	62.9	62.9	62.9	93	60.8	0	0	---	0.00	29.886 
08:40	63.4	63.4	63.4	93	61.3	0	0	---	0.00	29.886 
08:45	63.7	63.7	63.7	92	61.3	0	0	---	0.00	29.881 
08:50	64.2	64.2	64.2	91	61.5	0	0	---	0.00	29.881 
08:55	64.5	64.5	64.5	90	61.5	0	1	292	0.00	29.881 
09:00	65.0	65.0	65.0	88	61.4	0	0	---	0.00	29.882 
09:05	65.5	65.5	65.5	86	61.2	0	1	292	0.00	29.882 
09:10	66.0	66.0	66.0	83	60.7	0	1	292	0.00	29.882 
09:15	66.6	66.6	66.6	81	60.6	0	1	292	0.00	29.881 
09:20	67.3	67.3	67.3	80	60.9	0	1	292	0.00	29.881 
09:25	67.9	67.9	67.9	77	60.4	1	4	68	0.00	29.881 
09:30	68.4	68.4	68.4	76	60.5	1	4	68	0.00	29.866 
09:35	68.9	68.9	68.9	76	61.0	1	3	68	0.00	29.866 
09:40	69.4	69.4	69.4	75	61.1	1	4	68	0.00	29.866 
09:45	69.8	69.8	69.8	74	61.1	0	1	68	0.00	29.875 
09:50	70.1	70.1	70.1	74	61.4	0	1	68	0.00	29.875 
09:55	70.4	70.4	70.4	74	61.7	0	1	68	0.00	29.875 
10:00	70.9	70.9	70.9	73	61.8	1	3	68	0.00	29.878 
10:05	71.3	71.3	71.3	73	62.2	1	3	135	0.00	29.878 
10:10	71.8	71.8	71.8	73	62.7	0	2	158	0.00	29.878 
10:15	72.3	72.3	72.3	73	63.1	0	1	158	0.00	29.886 
10:20	72.7	72.7	72.7	73	63.5	0	2	158	0.00	29.886 
10:25	73.2	73.2	73.2	72	63.6	1	3	158	0.00	29.886 
10:30	73.7	73.7	73.7	72	64.1	0	2	158	0.00	29.880 
10:35	74.4	74.4	74.4	70	64.0	0	2	158	0.00	29.880 
10:40	75.3	75.3	76.9	71	65.2	0	1	158	0.00	29.880 
10:45	75.6	75.6	77.2	70	65.1	0	3	158	0.00	29.884 
10:50	76.0	76.0	77.7	70	65.5	0	2	158	0.00	29.884 
10:55	76.1	76.1	77.8	70	65.6	0	2	158	0.00	29.884 
11:00	76.3	76.3	77.9	72	66.6	0	2	158	0.00	29.881 
11:05	76.3	76.3	77.8	73	67.0	0	1	158	0.00	29.881 
11:10	76.5	76.5	78.1	73	67.2	0	1	158	0.00	29.881 
11:15	76.5	76.5	78.1	74	67.6	0	2	158	0.00	29.872 
11:20	76.8	76.8	78.4	75	68.3	0	1	158	0.00	29.872 
11:25	76.8	76.8	78.4	74	67.9	0	1	158	0.00	29.872 
11:30	76.8	76.8	78.4	76	68.6	0	2	158	0.00	29.869 
11:35	77.2	77.2	79.0	75	68.6	0	1	158	0.00	29.869 
11:40	77.6	77.6	79.6	75	69.0	0	1	158	0.00	29.869 
11:45	77.7	77.7	79.7	75	69.1	0	1	158	0.00	29.869 
11:50	77.9	77.9	80.0	74	68.9	0	1	158	0.00	29.869 
11:55	77.7	77.7	79.7	75	69.1	0	1	158	0.00	29.869 
12:00	77.7	77.7	79.7	75	69.1	0	2	158	0.00	29.871 
12:05	77.6	77.6	79.6	75	69.0	0	1	158	0.00	29.871 
12:10	77.4	77.4	79.3	76	69.2	0	1	158	0.00	29.871 
12:15	77.2	77.2	79.0	76	69.0	0	1	158	0.00	29.871 
12:20	77.0	77.0	78.7	77	69.2	0	1	158	0.00	29.871 
12:25	76.7	76.7	78.2	77	68.9	0	0	---	0.00	29.871 
12:30	76.7	76.7	78.2	77	68.9	0	0	---	0.00	29.855 
12:35	76.5	76.5	77.9	77	68.7	0	0	---	0.00	29.855 
12:40	76.1	76.1	77.3	78	68.7	0	0	---	0.00	29.855 
12:45	76.0	76.0	77.2	78	68.6	0	0	---	0.00	29.852 
12:50	75.8	75.8	76.8	79	68.8	0	1	158	0.00	29.852 
12:55	75.6	75.6	76.3	81	69.3	0	2	158	0.00	29.852 
13:00	75.3	75.3	75.8	82	69.4	0	1	158	0.00	29.882 
13:05	74.7	74.7	74.7	83	69.2	1	3	180	0.01	29.882 
13:10	74.2	74.2	74.2	85	69.4	1	7	248	0.02	29.882 
13:15	73.3	73.3	73.3	86	68.8	1	3	248	0.02	29.874 
13:20	72.5	72.5	72.5	87	68.4	0	1	90	0.00	29.874 
13:25	71.6	71.6	71.6	87	67.5	1	3	0	0.01	29.874 
13:30	70.3	70.3	70.3	87	66.2	3	7	90	0.01	29.820 
13:35	68.6	68.6	68.6	86	64.2	3	5	90	0.01	29.820 
13:40	67.6	67.6	67.6	87	63.6	1	3	22	0.00	29.820 
13:45	66.9	66.9	66.9	88	63.2	0	1	22	0.00	29.818 
13:50	66.6	66.6	66.6	88	62.9	0	2	22	0.00	29.818 
13:55	66.6	66.6	66.6	89	63.3	0	0	---	0.00	29.818 
14:00	66.8	66.8	66.8	90	63.8	0	0	---	0.00	29.802 
14:05	66.9	66.9	66.9	90	63.9	0	1	22	0.00	29.802 
14:10	67.4	67.4	67.4	90	64.4	0	1	22	0.00	29.802 
14:15	67.9	67.9	67.9	89	64.5	0	1	22	0.00	29.817 
14:20	69.1	69.1	69.1	90	66.0	0	0	---	0.00	29.817 
14:25	69.8	69.8	69.8	88	66.1	0	0	---	0.00	29.817 
14:30	70.6	70.6	70.6	88	66.9	0	1	22	0.00	29.816 
14:35	71.5	71.5	71.5	86	67.1	0	2	22	0.00	29.816 
14:40	72.5	72.5	72.5	82	66.7	0	2	22	0.00	29.816 
14:45	73.0	73.0	73.0	78	65.7	1	3	22	0.00	29.811 
14:50	73.3	73.3	73.3	77	65.6	0	3	45	0.00	29.811 
14:55	74.2	74.2	74.2	73	65.0	0	3	45	0.00	29.811 
15:00	75.1	75.1	76.8	70	64.6	1	3	45	0.00	29.802 
15:05	75.6	75.6	77.4	68	64.3	1	3	45	0.00	29.802 
15:10	76.1	76.1	78.0	65	63.5	1	4	45	0.00	29.802 
15:15	76.3	76.3	78.1	67	64.5	0	3	112	0.00	29.804 
15:20	76.5	76.5	78.2	69	65.6	0	2	112	0.00	29.804 
15:25	76.7	76.7	78.5	68	65.3	1	4	270	0.00	29.804 
15:30	76.8	76.8	78.6	68	65.4	0	3	292	0.00	29.806 
15:35	77.0	77.0	78.8	66	64.8	1	3	292	0.00	29.806 
15:40	77.6	77.6	79.4	64	64.4	1	3	45	0.00	29.806 
15:45	77.6	77.6	79.4	62	63.5	2	3	68	0.00	29.782 
15:50	77.6	77.6	79.4	63	64.0	1	3	68	0.00	29.782 
15:55	77.4	77.4	79.1	60	62.4	1	2	338	0.00	29.782 
16:00	77.6	77.6	79.4	62	63.5	1	3	248	0.00	29.781 
16:05	77.6	77.6	79.4	62	63.5	1	3	68	0.00	29.781 
16:10	77.4	77.4	79.2	62	63.3	1	3	270	0.00	29.781 
16:15	77.6	77.6	79.3	61	63.1	2	4	270	0.00	29.779 
16:20	77.7	77.7	79.4	62	63.6	0	2	270	0.00	29.779 
16:25	77.9	77.9	79.6	61	63.3	1	4	112	0.00	29.779 
16:30	77.9	77.9	79.6	61	63.3	1	4	270	0.00	29.773 
16:35	77.9	77.9	79.7	63	64.3	1	3	112	0.00	29.773 
16:40	77.9	77.9	79.6	62	63.8	1	4	338	0.00	29.773 
16:45	77.9	77.9	79.6	62	63.8	0	4	68	0.00	29.767 
16:50	77.7	77.7	79.4	62	63.6	0	2	68	0.00	29.767 
16:55	77.9	77.9	79.7	63	64.3	1	4	68	0.00	29.767 
17:00	77.9	77.9	79.6	61	63.3	1	3	248	0.00	29.768 
17:05	77.7	77.7	79.4	62	63.6	1	3	248	0.00	29.768 
17:10	77.6	77.6	79.4	63	64.0	1	4	270	0.00	29.768 
17:15	77.7	77.7	79.5	64	64.5	1	2	292	0.00	29.746 
17:20	77.7	77.7	79.4	61	63.2	1	4	90	0.00	29.746 
17:25	77.9	77.9	79.6	60	62.9	2	3	248	0.00	29.746 
17:30	77.9	77.9	79.6	60	62.9	1	3	338	0.00	29.735 
17:35	77.6	77.6	79.3	60	62.6	2	5	292	0.00	29.735 
17:40	77.2	77.2	79.0	62	63.2	2	5	270	0.00	29.735 
17:45	77.2	77.2	79.0	62	63.2	1	3	270	0.00	29.709 
17:50	76.8	76.8	78.6	62	62.8	1	4	90	0.00	29.709 
17:55	76.5	76.5	78.3	63	62.9	0	2	90	0.00	29.709 
18:00	76.1	76.1	78.0	64	63.0	1	4	270	0.00	29.707 
18:05	76.0	76.0	77.9	65	63.4	1	3	248	0.00	29.707 
18:10	76.0	76.0	77.9	65	63.4	1	7	90	0.00	29.707 
18:15	76.0	76.0	77.8	66	63.8	0	3	338	0.00	29.704 
18:20	76.0	76.0	77.8	67	64.2	0	1	338	0.00	29.704 
18:25	76.0	76.0	77.8	67	64.2	0	1	338	0.00	29.704 
18:30	75.8	75.8	77.6	68	64.5	0	1	338	0.00	29.707 
18:35	75.6	75.6	77.3	69	64.7	0	2	338	0.00	29.707 
18:40	75.6	75.6	77.3	69	64.7	0	3	270	0.00	29.707 
18:45	75.4	75.4	77.1	69	64.5	0	3	270	0.00	29.720 
18:50	75.3	75.3	77.0	69	64.4	1	2	270	0.00	29.720 
18:55	75.3	75.3	77.0	69	64.4	0	2	270	0.00	29.720 
19:00	75.3	75.3	77.0	69	64.4	1	2	270	0.00	29.728 
19:05	75.3	75.3	77.0	69	64.4	0	1	270	0.00	29.728 
19:10	75.3	75.3	77.0	69	64.4	0	2	270	0.00	29.728 
19:15	75.1	75.1	76.9	69	64.2	0	2	270	0.00	29.722 
19:20	75.1	75.1	76.9	69	64.2	0	2	270	0.00	29.722 
19:25	74.9	74.9	74.9	70	64.4	0	2	270	0.00	29.722 
19:30	74.9	74.9	74.9	70	64.4	0	1	270	0.00	29.732 
19:35	74.9	74.9	74.9	69	64.0	1	3	270	0.00	29.732 
19:40	74.9	74.9	74.9	70	64.4	0	2	270	0.00	29.732 
19:45	74.7	74.7	74.7	70	64.2	0	2	270	0.00	29.735 
19:50	74.7	74.7	74.7	71	64.7	0	1	270	0.00	29.735 
19:55	74.4	74.4	74.4	73	65.2	0	2	270	0.00	29.735 
20:00	74.2	74.2	74.2	73	65.0	0	2	270	0.00	29.736 
20:05	74.0	74.0	74.0	74	65.2	0	1	270	0.00	29.736 
20:10	73.7	73.7	73.7	77	66.0	0	2	270	0.01	29.736 
20:15	73.0	73.0	73.0	79	66.1	0	1	270	0.00	29.727 
20:20	72.5	72.5	72.5	81	66.3	0	2	270	0.02	29.727 
20:25	71.8	71.8	71.8	83	66.3	0	1	270	0.00	29.727 
20:30	71.1	71.1	71.1	84	66.0	0	2	270	0.01	29.730 
20:35	70.8	70.8	70.8	86	66.4	1	3	270	0.00	29.730 
20:40	70.4	70.4	70.4	87	66.3	0	2	270	0.01	29.730 
20:45	70.1	70.1	70.1	88	66.4	0	2	270	0.01	29.739 
20:50	69.8	69.8	69.8	89	66.4	0	1	270	0.01	29.739 
20:55	69.6	69.6	69.6	89	66.2	0	1	270	0.02	29.739 
21:00	69.3	69.3	69.3	90	66.2	0	2	270	0.01	29.733 
21:05	69.1	69.1	69.1	90	66.0	0	0	---	0.01	29.733 
21:10	68.8	68.8	68.8	91	66.1	0	0	---	0.01	29.733 
21:15	68.6	68.6	68.6	91	65.9	0	0	---	0.01	29.718 
21:20	68.4	68.4	68.4	91	65.7	0	0	---	0.00	29.718 
21:25	68.4	68.4	68.4	92	66.0	0	0	---	0.00	29.718 
21:30	68.4	68.4	68.4	92	66.0	0	1	270	0.01	29.739 
21:35	68.4	68.4	68.4	92	66.0	0	1	270	0.00	29.739 
21:40	68.3	68.3	68.3	92	65.9	0	0	---	0.01	29.739 
21:45	68.3	68.3	68.3	92	65.9	0	0	---	0.01	29.732 
21:50	68.1	68.1	68.1	93	66.0	0	0	---	0.01	29.732 
21:55	68.1	68.1	68.1	93	66.0	0	0	---	0.01	29.732 
22:00	68.1	68.1	68.1	93	66.0	0	0	---	0.02	29.729 
22:05	68.1	68.1	68.1	93	66.0	0	0	---	0.03	29.729 
22:10	67.9	67.9	67.9	93	65.8	0	0	---	0.02	29.729 
22:15	67.9	67.9	67.9	93	65.8	0	0	---	0.02	29.720 
22:20	67.9	67.9	67.9	93	65.8	0	1	270	0.01	29.720 
22:25	67.9	67.9	67.9	94	66.1	0	0	---	0.02	29.720 
22:30	67.8	67.8	67.8	94	66.0	0	0	---	0.01	29.715 
22:35	67.8	67.8	67.8	94	66.0	0	0	---	0.02	29.715 
22:40	67.6	67.6	67.6	94	65.8	0	0	---	0.01	29.715 
22:45	67.6	67.6	67.6	94	65.8	0	0	---	0.01	29.715 
22:50	67.6	67.6	67.6	94	65.8	0	0	---	0.01	29.715 
22:55	67.4	67.4	67.4	94	65.6	0	0	---	0.00	29.715 
23:00	67.4	67.4	67.4	94	65.6	0	0	---	0.01	29.709 
23:05	67.3	67.3	67.3	94	65.5	0	0	---	0.00	29.709 
23:10	67.1	67.1	67.1	94	65.3	0	0	---	0.00	29.709 
23:15	67.1	67.1	67.1	94	65.3	0	0	---	0.01	29.710 
23:20	67.1	67.1	67.1	94	65.3	0	0	---	0.00	29.710 
23:25	66.9	66.9	66.9	94	65.1	0	0	---	0.00	29.710 
23:30	66.9	66.9	66.9	94	65.1	0	0	---	0.01	29.702 
23:35	66.8	66.8	66.8	94	65.0	0	0	---	0.00	29.702 
23:40	66.8	66.8	66.8	95	65.3	0	0	---	0.01	29.702 
23:45	66.8	66.8	66.8	95	65.3	0	1	270	0.00	29.688 
23:50	66.9	66.9	66.9	95	65.4	0	0	---	0.01	29.688 
23:55	66.9	66.9	66.9	95	65.4	0	1	270	0.01	29.688 

CoCoRaHS
IN-AL-39
A2 Web Hosting
Creative Commons License
GoDaddy
search engine by freefind advanced

loaded 2018-11-17 19:28:54 • last modified 2010-11-18 10:43:29
Privacy PolicyDisclaimer
• wx.awcolley.com is powered by PmWiki v.2002016 •
• all content (unless otherwise noted) © 2018 A W Colley